DAL1525 KATL-KTPA
Flight info
| Callsign | DAL1525 |
|---|---|
| Flight time | 0h 58m |
| Altitude | 29000 |
| Route | BANNG3 LUCKK DCT HONID MAATY5 |
| Aircraft | A320/M-FAA/L |
Departure
| Time | 2026-04-30 18:05 |
|---|---|
| Airport | Hartsfield Jackson Atlanta International Airport (KATL) |
Arrival
| Time | 2026-04-30 19:03 |
|---|---|
| Airport | Tampa International Airport (KTPA) |
| Time | Latitude | Longitude | Altitude | Speed | Heading |
|---|---|---|---|---|---|
| 2026-04-30 18:04 | 33.51244 | -84.68599 | 19798 ft | 351 kts | 180° |
| 2026-04-30 18:05 | 33.41410 | -84.66415 | 23483 ft | 381 kts | 171° |
| 2026-04-30 18:06 | 33.30769 | -84.60768 | 24878 ft | 456 kts | 165° |
| 2026-04-30 18:07 | 33.18957 | -84.54372 | 27356 ft | 478 kts | 165° |
| 2026-04-30 18:08 | 33.09716 | -84.49409 | 28868 ft | 492 kts | 166° |
| 2026-04-30 18:09 | 32.97180 | -84.43034 | 28951 ft | 479 kts | 175° |
| 2026-04-30 18:10 | 32.84443 | -84.41891 | 28947 ft | 455 kts | 191° |
| 2026-04-30 18:11 | 32.62121 | -84.41450 | 28939 ft | 460 kts | 190° |
| 2026-04-30 18:13 | 32.46100 | -84.41137 | 28939 ft | 467 kts | 189° |
| 2026-04-30 18:14 | 32.29921 | -84.40812 | 28930 ft | 466 kts | 189° |
| 2026-04-30 18:15 | 32.10353 | -84.40423 | 28933 ft | 471 kts | 189° |
| 2026-04-30 18:16 | 31.97199 | -84.40160 | 28935 ft | 471 kts | 189° |
| 2026-04-30 18:17 | 31.90643 | -84.40036 | 28938 ft | 476 kts | 189° |
| 2026-04-30 18:18 | 31.80719 | -84.39836 | 28937 ft | 475 kts | 189° |
| 2026-04-30 18:18 | 31.74100 | -84.39704 | 28938 ft | 475 kts | 189° |
| 2026-04-30 18:19 | 31.67482 | -84.39488 | 28899 ft | 481 kts | 184° |
| 2026-04-30 18:19 | 31.60850 | -84.37821 | 28944 ft | 499 kts | 169° |
| 2026-04-30 18:20 | 31.54351 | -84.34906 | 28944 ft | 502 kts | 167° |
| 2026-04-30 18:20 | 31.47817 | -84.31980 | 28944 ft | 501 kts | 167° |
| 2026-04-30 18:21 | 31.41327 | -84.29091 | 28942 ft | 501 kts | 167° |
| 2026-04-30 18:21 | 31.34818 | -84.26199 | 28927 ft | 496 kts | 167° |
| 2026-04-30 18:22 | 31.28357 | -84.23335 | 28925 ft | 497 kts | 167° |
| 2026-04-30 18:22 | 31.18651 | -84.19039 | 28925 ft | 497 kts | 167° |
| 2026-04-30 18:23 | 31.12193 | -84.16185 | 28925 ft | 497 kts | 167° |
| 2026-04-30 18:23 | 31.05743 | -84.13339 | 28926 ft | 494 kts | 167° |
| 2026-04-30 18:24 | 30.96078 | -84.09083 | 28926 ft | 494 kts | 167° |
| 2026-04-30 18:25 | 30.89656 | -84.06259 | 28931 ft | 495 kts | 167° |
| 2026-04-30 18:25 | 30.80008 | -84.02026 | 28923 ft | 491 kts | 166° |
| 2026-04-30 18:26 | 30.70403 | -83.97821 | 28933 ft | 492 kts | 166° |
| 2026-04-30 18:27 | 30.60803 | -83.93626 | 28932 ft | 492 kts | 166° |
| 2026-04-30 18:28 | 30.51198 | -83.89439 | 28933 ft | 491 kts | 166° |
| 2026-04-30 18:28 | 30.41617 | -83.85270 | 28932 ft | 491 kts | 166° |
| 2026-04-30 18:29 | 30.28827 | -83.79718 | 28929 ft | 491 kts | 166° |
| 2026-04-30 18:30 | 30.23512 | -83.77415 | 28780 ft | 485 kts | 166° |
| 2026-04-30 18:30 | 30.17260 | -83.74705 | 27494 ft | 477 kts | 166° |
| 2026-04-30 18:31 | 30.14152 | -83.73361 | 26725 ft | 473 kts | 166° |
| 2026-04-30 18:31 | 30.08016 | -83.70711 | 25236 ft | 464 kts | 166° |
| 2026-04-30 18:32 | 30.02021 | -83.68127 | 23813 ft | 457 kts | 166° |
| 2026-04-30 18:32 | 29.99075 | -83.66858 | 23077 ft | 452 kts | 166° |
| 2026-04-30 18:32 | 29.93275 | -83.64362 | 21661 ft | 439 kts | 166° |
| 2026-04-30 18:33 | 29.90415 | -83.63133 | 20968 ft | 433 kts | 166° |
| 2026-04-30 18:33 | 29.84848 | -83.60743 | 19639 ft | 423 kts | 166° |
| 2026-04-30 18:33 | 29.82096 | -83.59562 | 18993 ft | 418 kts | 166° |
| 2026-04-30 18:34 | 29.79389 | -83.58402 | 18371 ft | 412 kts | 166° |
| 2026-04-30 18:34 | 29.74082 | -83.56130 | 16978 ft | 402 kts | 166° |
| 2026-04-30 18:34 | 29.71498 | -83.55024 | 16317 ft | 397 kts | 166° |
| 2026-04-30 18:35 | 29.68915 | -83.53920 | 15663 ft | 392 kts | 165° |
| 2026-04-30 18:35 | 29.66363 | -83.52831 | 14988 ft | 388 kts | 165° |
| 2026-04-30 18:35 | 29.63862 | -83.51764 | 14390 ft | 383 kts | 165° |
| 2026-04-30 18:36 | 29.58915 | -83.49651 | 13116 ft | 373 kts | 165° |
| 2026-04-30 18:36 | 29.56509 | -83.48624 | 12450 ft | 369 kts | 165° |
| 2026-04-30 18:36 | 29.51767 | -83.46599 | 11196 ft | 361 kts | 165° |
| 2026-04-30 18:37 | 29.49422 | -83.45598 | 10599 ft | 356 kts | 165° |
| 2026-04-30 18:37 | 29.47135 | -83.44623 | 10159 ft | 350 kts | 165° |
| 2026-04-30 18:37 | 29.44821 | -83.43640 | 10005 ft | 355 kts | 165° |
| 2026-04-30 18:37 | 29.42501 | -83.42654 | 9964 ft | 353 kts | 165° |
| 2026-04-30 18:38 | 29.40222 | -83.41686 | 9959 ft | 354 kts | 165° |
| 2026-04-30 18:38 | 29.37921 | -83.40706 | 9956 ft | 344 kts | 165° |
| 2026-04-30 18:38 | 29.35739 | -83.39768 | 9959 ft | 322 kts | 166° |
| 2026-04-30 18:38 | 29.33702 | -83.38891 | 9957 ft | 304 kts | 166° |
| 2026-04-30 18:39 | 29.31718 | -83.38051 | 9960 ft | 308 kts | 166° |
| 2026-04-30 18:39 | 29.29723 | -83.37211 | 9962 ft | 306 kts | 166° |
| 2026-04-30 18:39 | 29.27712 | -83.36361 | 9962 ft | 307 kts | 166° |
| 2026-04-30 18:39 | 29.25725 | -83.35521 | 9960 ft | 306 kts | 166° |
| 2026-04-30 18:40 | 29.23721 | -83.34673 | 9961 ft | 307 kts | 166° |
| 2026-04-30 18:40 | 29.21715 | -83.33823 | 9960 ft | 307 kts | 166° |
| 2026-04-30 18:40 | 29.19708 | -83.32972 | 9965 ft | 307 kts | 166° |
| 2026-04-30 18:40 | 29.17724 | -83.32131 | 9965 ft | 307 kts | 166° |
| 2026-04-30 18:41 | 29.15713 | -83.31280 | 9961 ft | 307 kts | 166° |
| 2026-04-30 18:41 | 29.13705 | -83.30430 | 9960 ft | 307 kts | 166° |
| 2026-04-30 18:41 | 29.11720 | -83.29590 | 9963 ft | 307 kts | 166° |
| 2026-04-30 18:41 | 29.09707 | -83.28739 | 9961 ft | 307 kts | 166° |
| 2026-04-30 18:42 | 29.07714 | -83.27897 | 9955 ft | 307 kts | 166° |
| 2026-04-30 18:42 | 29.03683 | -83.26195 | 9965 ft | 308 kts | 166° |
| 2026-04-30 18:42 | 29.01691 | -83.25354 | 9965 ft | 309 kts | 166° |
| 2026-04-30 18:45 | 28.81585 | -83.16886 | 9967 ft | 308 kts | 166° |
| 2026-04-30 18:45 | 28.79571 | -83.16040 | 9967 ft | 308 kts | 166° |
| 2026-04-30 18:45 | 28.77554 | -83.15194 | 9961 ft | 309 kts | 166° |
| 2026-04-30 18:46 | 28.75538 | -83.14349 | 9968 ft | 309 kts | 166° |
| 2026-04-30 18:46 | 28.73541 | -83.13511 | 9968 ft | 308 kts | 166° |
| 2026-04-30 18:46 | 28.71519 | -83.12662 | 9971 ft | 308 kts | 166° |
| 2026-04-30 18:46 | 28.69501 | -83.11815 | 9972 ft | 309 kts | 166° |
| 2026-04-30 18:47 | 28.67497 | -83.10975 | 9970 ft | 309 kts | 166° |
| 2026-04-30 18:47 | 28.65465 | -83.10124 | 9969 ft | 309 kts | 166° |
| 2026-04-30 18:47 | 28.63469 | -83.09289 | 9970 ft | 308 kts | 166° |
| 2026-04-30 18:47 | 28.61438 | -83.08439 | 9969 ft | 308 kts | 166° |
| 2026-04-30 18:48 | 28.59459 | -83.07610 | 9813 ft | 306 kts | 166° |
| 2026-04-30 18:48 | 28.57453 | -83.06771 | 9421 ft | 304 kts | 166° |
| 2026-04-30 18:48 | 28.55469 | -83.05944 | 8968 ft | 302 kts | 165° |
| 2026-04-30 18:48 | 28.53497 | -83.05122 | 8544 ft | 299 kts | 165° |
| 2026-04-30 18:49 | 28.51581 | -83.04323 | 8154 ft | 294 kts | 165° |
| 2026-04-30 18:49 | 28.49649 | -83.03517 | 8008 ft | 298 kts | 165° |
| 2026-04-30 18:49 | 28.47727 | -83.02717 | 7960 ft | 296 kts | 164° |
| 2026-04-30 18:49 | 28.45780 | -83.01907 | 7968 ft | 298 kts | 164° |
| 2026-04-30 18:50 | 28.43827 | -83.01093 | 7967 ft | 297 kts | 164° |
| 2026-04-30 18:50 | 28.41908 | -83.00265 | 7974 ft | 298 kts | 160° |
| 2026-04-30 18:50 | 28.40073 | -82.99164 | 7931 ft | 293 kts | 155° |
| 2026-04-30 18:50 | 28.38347 | -82.98069 | 7846 ft | 281 kts | 155° |
| 2026-04-30 18:51 | 28.36653 | -82.96998 | 7600 ft | 275 kts | 155° |
| 2026-04-30 18:51 | 28.34981 | -82.95951 | 7247 ft | 272 kts | 156° |
| 2026-04-30 18:51 | 28.33346 | -82.94936 | 6903 ft | 271 kts | 155° |
| 2026-04-30 18:51 | 28.31685 | -82.93899 | 6548 ft | 269 kts | 155° |
| 2026-04-30 18:52 | 28.30065 | -82.92886 | 6224 ft | 267 kts | 154° |
| 2026-04-30 18:52 | 28.28520 | -82.91796 | 5901 ft | 267 kts | 141° |
| 2026-04-30 18:52 | 28.27457 | -82.90071 | 5544 ft | 269 kts | 111° |
| 2026-04-30 18:52 | 28.27180 | -82.88009 | 5232 ft | 267 kts | 90° |
| 2026-04-30 18:53 | 28.27259 | -82.85919 | 5022 ft | 264 kts | 86° |
| 2026-04-30 18:53 | 28.27398 | -82.83805 | 4977 ft | 267 kts | 86° |
| 2026-04-30 18:53 | 28.27514 | -82.81749 | 4974 ft | 258 kts | 87° |
| 2026-04-30 18:53 | 28.27600 | -82.79787 | 4974 ft | 244 kts | 88° |
| 2026-04-30 18:54 | 28.27664 | -82.77845 | 4967 ft | 245 kts | 88° |
| 2026-04-30 18:54 | 28.27716 | -82.75935 | 4975 ft | 245 kts | 89° |
| 2026-04-30 18:54 | 28.27762 | -82.73987 | 4974 ft | 249 kts | 89° |
| 2026-04-30 18:54 | 28.27811 | -82.72028 | 4973 ft | 245 kts | 88° |
| 2026-04-30 18:55 | 28.27860 | -82.70118 | 4966 ft | 242 kts | 88° |
| 2026-04-30 18:55 | 28.27960 | -82.66235 | 4966 ft | 246 kts | 88° |
| 2026-04-30 18:55 | 28.28010 | -82.64281 | 4969 ft | 242 kts | 88° |
| 2026-04-30 18:56 | 28.27490 | -82.60847 | 4788 ft | 212 kts | 132° |
| 2026-04-30 18:56 | 28.26361 | -82.59888 | 4677 ft | 198 kts | 157° |
| 2026-04-30 18:56 | 28.25102 | -82.59214 | 4353 ft | 201 kts | 161° |
| 2026-04-30 18:57 | 28.22592 | -82.57882 | 3963 ft | 198 kts | 156° |
| 2026-04-30 18:57 | 28.21406 | -82.57182 | 3776 ft | 197 kts | 155° |
| 2026-04-30 18:57 | 28.20209 | -82.56440 | 3495 ft | 198 kts | 155° |
| 2026-04-30 18:58 | 28.17882 | -82.54966 | 3231 ft | 186 kts | 155° |
| 2026-04-30 18:58 | 28.16755 | -82.54243 | 3022 ft | 186 kts | 157° |
| 2026-04-30 18:58 | 28.15588 | -82.53731 | 2954 ft | 173 kts | 174° |
| 2026-04-30 18:59 | 28.13310 | -82.53648 | 2628 ft | 155 kts | 189° |
| 2026-04-30 19:00 | 28.10094 | -82.53779 | 2200 ft | 146 kts | 188° |
| 2026-04-30 19:00 | 28.09104 | -82.53815 | 2075 ft | 146 kts | 188° |
| 2026-04-30 19:00 | 28.07133 | -82.53865 | 1972 ft | 141 kts | 186° |
| 2026-04-30 19:01 | 28.05168 | -82.53931 | 1989 ft | 141 kts | 188° |
| 2026-04-30 19:01 | 28.04177 | -82.53972 | 1621 ft | 145 kts | 188° |
| 2026-04-30 19:02 | 28.02196 | -82.54028 | 842 ft | 131 kts | 187° |
| 2026-04-30 19:02 | 28.00508 | -82.54092 | 420 ft | 115 kts | 186° |
| 2026-04-30 19:03 | 27.98961 | -82.54148 | 49 ft | 101 kts | 184° |
| 2026-04-30 19:03 | 27.98102 | -82.54180 | 47 ft | 49 kts | 181° |
| 2026-04-30 19:04 | 27.97572 | -82.54189 | 47 ft | 14 kts | 183° |
| 2026-04-30 19:04 | 27.97418 | -82.54096 | 48 ft | 11 kts | 61° |
| 2026-04-30 19:05 | 27.97460 | -82.54075 | 47 ft | 0 kts | 5° |
| 2026-04-30 19:05 | 27.97472 | -82.54074 | 47 ft | 5 kts | 6° |
| 2026-04-30 19:06 | 27.97652 | -82.54067 | 47 ft | 19 kts | 0° |
| 2026-04-30 19:06 | 27.97793 | -82.54062 | 47 ft | 22 kts | 1° |
| 2026-04-30 19:06 | 27.98109 | -82.54052 | 47 ft | 24 kts | 1° |
| 2026-04-30 19:07 | 27.98334 | -82.54013 | 47 ft | 15 kts | 66° |
| 2026-04-30 19:07 | 27.98267 | -82.53918 | 47 ft | 18 kts | 142° |
| 2026-04-30 19:08 | 27.98169 | -82.53778 | 43 ft | 11 kts | 123° |
| 2026-04-30 19:08 | 27.98112 | -82.53745 | 43 ft | 4 kts | 192° |
| 2026-04-30 19:08 | 27.98094 | -82.53753 | 43 ft | 3 kts | 203° |
| 2026-04-30 19:09 | 27.98093 | -82.53754 | 43 ft | 0 kts | 203° |